createdAt,value
2022-09-29T00:02:54.224Z,8.77
2022-09-29T00:06:55.951Z,8.74
2022-09-29T00:10:57.977Z,8.73
2022-09-29T00:14:59.631Z,8.85
2022-09-29T00:19:01.638Z,8.77
2022-09-29T00:23:03.759Z,8.89
2022-09-29T00:27:05.707Z,8.87
2022-09-29T00:31:10.823Z,8.84
2022-09-29T00:35:12.860Z,8.90
2022-09-29T00:39:14.745Z,8.85
2022-09-29T00:43:23.614Z,8.81
2022-09-29T00:47:25.947Z,8.84
2022-09-29T00:51:30.593Z,8.75
2022-09-29T00:55:41.906Z,8.74
2022-09-29T00:59:50.434Z,8.83
2022-09-29T01:03:57.202Z,8.77
2022-09-29T01:08:06.155Z,8.80
2022-09-29T01:12:08.423Z,8.70
2022-09-29T01:16:10.327Z,8.71
2022-09-29T01:20:16.195Z,8.65
2022-09-29T01:24:40.115Z,8.59
2022-09-29T01:29:02.463Z,8.50
2022-09-29T01:33:16.652Z,8.42
2022-09-29T01:37:31.464Z,8.39
2022-09-29T01:41:41.163Z,8.49
2022-09-29T01:45:50.909Z,8.43
2022-09-29T01:50:13.248Z,8.34
2022-09-29T01:54:19.674Z,8.31
2022-09-29T01:58:33.089Z,8.33
2022-09-29T02:02:41.700Z,8.28
2022-09-29T02:06:49.947Z,8.18
2022-09-29T02:10:59.517Z,8.30
2022-09-29T02:15:04.017Z,8.17
2022-09-29T02:19:15.365Z,8.26
2022-09-29T02:23:18.386Z,8.18
2022-09-29T02:27:22.572Z,8.20
2022-09-29T02:31:24.945Z,8.24
2022-09-29T02:35:45.808Z,8.16
2022-09-29T02:39:53.664Z,8.17
2022-09-29T02:44:15.886Z,8.25
2022-09-29T02:48:56.212Z,8.19
2022-09-29T02:53:16.843Z,8.14
2022-09-29T02:57:43.543Z,8.09
2022-09-29T03:01:54.198Z,7.96
2022-09-29T03:05:56.290Z,7.95
2022-09-29T03:09:57.882Z,8.01
2022-09-29T03:14:00.092Z,8.03
2022-09-29T03:18:07.000Z,7.97
2022-09-29T03:22:11.390Z,7.98
2022-09-29T03:26:13.098Z,7.92
2022-09-29T03:30:15.239Z,7.95
2022-09-29T03:34:16.881Z,7.86
2022-09-29T03:38:18.711Z,8.06
2022-09-29T03:42:22.784Z,7.99
2022-09-29T03:46:24.939Z,8.00
2022-09-29T03:50:26.580Z,7.91
2022-09-29T03:54:28.689Z,7.91
2022-09-29T03:58:30.307Z,7.85
2022-09-29T04:02:34.519Z,7.75
2022-09-29T04:06:36.607Z,7.84
2022-09-29T04:10:39.189Z,7.82
2022-09-29T04:14:40.946Z,7.66
2022-09-29T04:18:42.986Z,7.71
2022-09-29T04:22:44.673Z,7.78
2022-09-29T04:26:46.615Z,7.69
2022-09-29T04:30:48.385Z,7.64
2022-09-29T04:34:50.653Z,7.60
2022-09-29T04:38:52.233Z,7.51
2022-09-29T04:42:54.193Z,7.49
2022-09-29T04:46:55.854Z,7.51
2022-09-29T04:50:57.661Z,7.54
2022-09-29T04:54:59.449Z,7.59
2022-09-29T04:59:01.283Z,7.55
2022-09-29T05:03:03.551Z,7.60
2022-09-29T05:07:05.570Z,7.66
2022-09-29T05:11:09.158Z,7.70
2022-09-29T05:15:11.079Z,7.65
2022-09-29T05:19:13.010Z,7.76
2022-09-29T05:23:14.937Z,7.80
2022-09-29T05:27:16.715Z,7.86
2022-09-29T05:31:19.104Z,7.98
2022-09-29T05:35:20.941Z,7.92
2022-09-29T05:39:22.785Z,8.02
2022-09-29T05:43:25.583Z,7.90
2022-09-29T05:47:27.756Z,7.96
2022-09-29T05:51:29.524Z,8.01
2022-09-29T05:55:31.403Z,8.14
2022-09-29T05:59:33.033Z,8.00
2022-09-29T06:03:35.874Z,8.09
2022-09-29T06:07:37.565Z,8.13
2022-09-29T06:11:39.455Z,8.24
2022-09-29T06:15:41.194Z,8.16
2022-09-29T06:19:44.937Z,8.35
2022-09-29T06:23:47.295Z,8.71
2022-09-29T06:27:49.132Z,8.82
2022-09-29T06:31:50.934Z,8.90
2022-09-29T06:36:11.812Z,8.84
2022-09-29T06:40:14.164Z,8.74
2022-09-29T06:44:16.039Z,8.55
2022-09-29T06:48:18.290Z,8.51
2022-09-29T06:52:21.518Z,8.68
2022-09-29T06:56:23.624Z,8.70
2022-09-29T07:00:25.624Z,9.02
2022-09-29T07:04:27.390Z,9.27
2022-09-29T07:08:29.277Z,9.02
2022-09-29T07:12:31.258Z,9.22
2022-09-29T07:16:33.299Z,9.31
2022-09-29T07:20:35.628Z,9.39
2022-09-29T07:24:37.966Z,9.18
2022-09-29T07:28:40.357Z,9.36
2022-09-29T07:32:47.202Z,9.35
2022-09-29T07:36:53.987Z,9.50
2022-09-29T07:41:03.565Z,9.27
2022-09-29T07:45:06.005Z,9.32
2022-09-29T07:49:08.125Z,9.53
2022-09-29T07:53:11.557Z,9.44
2022-09-29T07:57:13.557Z,9.49
2022-09-29T08:01:16.544Z,9.40
2022-09-29T08:05:19.312Z,9.50
2022-09-29T08:09:23.297Z,9.51
2022-09-29T08:13:26.585Z,9.57
2022-09-29T08:17:28.273Z,9.56
2022-09-29T08:21:36.250Z,9.71
2022-09-29T08:25:38.008Z,10.03
2022-09-29T08:29:46.156Z,10.13
2022-09-29T08:33:51.492Z,10.09
2022-09-29T08:37:55.113Z,9.95
2022-09-29T08:42:14.969Z,9.94
2022-09-29T08:46:34.536Z,9.96
2022-09-29T08:50:49.947Z,9.88
2022-09-29T08:55:00.130Z,10.19
2022-09-29T08:59:03.858Z,10.42
2022-09-29T09:03:42.986Z,10.60
2022-09-29T09:08:04.147Z,10.83
2022-09-29T09:12:06.257Z,10.64
2022-09-29T09:16:41.832Z,10.50
2022-09-29T09:20:59.878Z,10.36
2022-09-29T09:25:07.730Z,10.43
2022-09-29T09:29:30.648Z,10.52
2022-09-29T09:34:05.598Z,10.53
2022-09-29T09:38:18.156Z,10.76
2022-09-29T09:42:29.465Z,11.05
2022-09-29T09:47:06.149Z,10.85
2022-09-29T09:51:24.323Z,10.85
2022-09-29T09:55:27.223Z,11.09
2022-09-29T10:00:05.416Z,11.07
2022-09-29T10:04:14.373Z,11.07
2022-09-29T10:08:25.623Z,11.34
2022-09-29T10:12:27.441Z,11.87
2022-09-29T10:16:41.540Z,11.82
2022-09-29T10:20:43.713Z,11.79
2022-09-29T10:24:45.435Z,11.71
2022-09-29T10:28:52.613Z,11.56
2022-09-29T10:33:00.284Z,11.52
2022-09-29T10:37:05.633Z,11.56
2022-09-29T10:41:08.641Z,11.45
2022-09-29T10:45:15.000Z,11.27
2022-09-29T10:49:25.486Z,11.24
2022-09-29T10:53:39.785Z,11.11
2022-09-29T10:57:41.687Z,10.95
2022-09-29T11:01:50.300Z,11.04
2022-09-29T11:05:59.557Z,10.90
2022-09-29T11:10:02.034Z,10.95
2022-09-29T11:14:03.936Z,11.11
2022-09-29T11:18:20.131Z,11.30
2022-09-29T11:22:56.337Z,11.38
2022-09-29T11:27:28.533Z,11.59
2022-09-29T11:31:54.832Z,11.74
2022-09-29T11:36:13.960Z,11.91
2022-09-29T11:40:28.893Z,11.88
2022-09-29T11:44:42.823Z,11.95
2022-09-29T11:48:54.217Z,11.93
2022-09-29T11:53:19.766Z,11.92
2022-09-29T11:57:41.106Z,11.71
2022-09-29T12:02:20.985Z,11.37
2022-09-29T12:06:52.189Z,11.77
2022-09-29T12:11:37.362Z,11.56
2022-09-29T12:15:40.874Z,11.50
2022-09-29T12:19:45.410Z,11.48
2022-09-29T12:23:48.549Z,11.78
2022-09-29T12:27:54.941Z,11.76
2022-09-29T12:31:59.864Z,11.68
2022-09-29T12:36:53.734Z,11.59
2022-09-29T12:41:13.958Z,11.68
2022-09-29T12:45:40.128Z,11.70
2022-09-29T12:50:03.885Z,11.54
2022-09-29T12:54:22.177Z,11.50
2022-09-29T12:58:41.215Z,11.50
2022-09-29T13:02:56.006Z,11.37
2022-09-29T13:07:24.112Z,11.30
2022-09-29T13:11:31.715Z,11.36
2022-09-29T13:15:47.861Z,11.53
2022-09-29T13:20:10.964Z,11.52
2022-09-29T13:24:50.039Z,11.36
2022-09-29T13:29:11.512Z,11.40
2022-09-29T13:33:20.221Z,11.31
2022-09-29T13:37:25.840Z,11.31
2022-09-29T13:41:30.634Z,11.28
2022-09-29T13:45:34.689Z,11.41
2022-09-29T13:49:36.568Z,11.27
2022-09-29T13:53:38.640Z,11.42
2022-09-29T13:57:51.263Z,11.94
2022-09-29T14:01:53.410Z,12.51
2022-09-29T14:06:08.775Z,12.53
2022-09-29T14:10:36.236Z,12.42
2022-09-29T14:14:41.659Z,12.22
2022-09-29T14:19:01.747Z,12.31
2022-09-29T14:23:06.566Z,12.36
2022-09-29T14:27:14.865Z,12.45
2022-09-29T14:31:20.906Z,12.41
2022-09-29T14:35:33.202Z,12.45
2022-09-29T14:39:39.444Z,12.41
2022-09-29T14:43:55.596Z,12.32
2022-09-29T14:48:39.024Z,12.19
2022-09-29T14:52:52.929Z,12.29
2022-09-29T14:57:34.715Z,12.03
2022-09-29T15:01:41.882Z,11.89
2022-09-29T15:05:43.674Z,11.65
2022-09-29T15:09:54.277Z,11.66
2022-09-29T15:13:58.225Z,11.52
2022-09-29T15:18:19.292Z,11.45
2022-09-29T15:22:38.021Z,11.45
2022-09-29T15:26:42.023Z,11.35
2022-09-29T15:30:45.722Z,10.96
2022-09-29T15:34:53.770Z,10.48
2022-09-29T15:39:05.823Z,10.43
2022-09-29T15:43:25.210Z,9.99
2022-09-29T15:47:29.579Z,9.88
2022-09-29T15:51:31.823Z,9.70
2022-09-29T15:55:33.628Z,9.48
2022-09-29T15:59:54.124Z,9.37
2022-09-29T16:04:01.395Z,9.14
2022-09-29T16:08:06.309Z,8.98
2022-09-29T16:12:08.467Z,8.76
2022-09-29T16:16:12.345Z,8.48
2022-09-29T16:20:26.948Z,8.30
2022-09-29T16:24:38.468Z,8.19
2022-09-29T16:29:09.461Z,8.02
2022-09-29T16:33:19.974Z,7.67
2022-09-29T16:37:21.847Z,7.76
2022-09-29T16:41:38.107Z,7.63
2022-09-29T16:45:41.138Z,7.48
2022-09-29T16:49:50.777Z,7.26
2022-09-29T16:53:59.055Z,7.19
2022-09-29T16:58:09.765Z,7.01
2022-09-29T17:02:12.892Z,6.93
2022-09-29T17:06:15.061Z,6.69
2022-09-29T17:10:20.422Z,6.82
2022-09-29T17:14:22.811Z,6.56
2022-09-29T17:18:27.032Z,6.59
2022-09-29T17:22:31.724Z,6.55
2022-09-29T17:27:03.659Z,6.55
2022-09-29T17:31:06.041Z,6.50
2022-09-29T17:35:08.670Z,6.21
2022-09-29T17:39:10.701Z,6.12
2022-09-29T17:43:12.404Z,6.04
2022-09-29T17:47:31.185Z,5.88
2022-09-29T17:51:35.797Z,5.97
2022-09-29T17:55:37.798Z,5.76
2022-09-29T17:59:40.318Z,5.78
2022-09-29T18:03:42.387Z,5.97
2022-09-29T18:07:44.986Z,5.89
2022-09-29T18:11:48.057Z,5.67
2022-09-29T18:15:50.780Z,5.75
2022-09-29T18:19:52.644Z,5.73
2022-09-29T18:23:54.686Z,5.54
2022-09-29T18:27:57.104Z,5.59
2022-09-29T18:31:59.444Z,5.46
2022-09-29T18:36:02.065Z,5.46
2022-09-29T18:40:04.225Z,5.41
2022-09-29T18:44:15.319Z,5.27
2022-09-29T18:48:17.023Z,5.16
2022-09-29T18:52:18.955Z,5.14
2022-09-29T18:56:20.659Z,5.03
2022-09-29T19:00:24.473Z,5.07
2022-09-29T19:04:26.210Z,5.03
2022-09-29T19:08:29.890Z,4.78
2022-09-29T19:12:32.142Z,4.78
2022-09-29T19:16:34.471Z,4.78
2022-09-29T19:20:36.450Z,4.76
2022-09-29T19:24:38.297Z,4.66
2022-09-29T19:28:41.113Z,4.70
2022-09-29T19:32:43.679Z,4.84
2022-09-29T19:36:45.537Z,4.83
2022-09-29T19:40:48.200Z,4.81
2022-09-29T19:44:50.157Z,4.74
2022-09-29T19:48:52.019Z,4.56
2022-09-29T19:52:55.567Z,4.45
2022-09-29T19:57:11.059Z,4.48
2022-09-29T20:01:12.966Z,4.59
2022-09-29T20:05:15.398Z,4.38
2022-09-29T20:09:18.298Z,4.38
2022-09-29T20:13:20.307Z,4.19
2022-09-29T20:17:22.333Z,4.06
2022-09-29T20:21:24.610Z,4.21
2022-09-29T20:25:26.302Z,4.42
2022-09-29T20:29:29.274Z,4.37
2022-09-29T20:33:31.216Z,4.15
2022-09-29T20:37:33.276Z,3.95
2022-09-29T20:41:35.085Z,3.87
2022-09-29T20:45:36.892Z,3.94
2022-09-29T20:49:39.252Z,3.89
2022-09-29T20:53:43.253Z,3.80
2022-09-29T20:57:46.386Z,3.81
2022-09-29T21:01:49.444Z,3.68
2022-09-29T21:05:51.610Z,3.87
2022-09-29T21:09:54.059Z,3.95
2022-09-29T21:13:59.149Z,3.94
2022-09-29T21:18:02.090Z,3.96
2022-09-29T21:22:03.922Z,3.90
2022-09-29T21:26:07.396Z,3.57
2022-09-29T21:30:09.919Z,3.54
2022-09-29T21:34:13.373Z,3.55
2022-09-29T21:38:15.147Z,3.48
2022-09-29T21:42:17.035Z,3.58
2022-09-29T21:46:21.652Z,3.49
2022-09-29T21:50:23.561Z,3.37
2022-09-29T21:54:26.169Z,3.37
2022-09-29T21:58:29.076Z,3.39
2022-09-29T22:02:30.790Z,3.34
2022-09-29T22:06:34.393Z,3.33
2022-09-29T22:10:36.115Z,3.23
2022-09-29T22:14:38.101Z,3.23
2022-09-29T22:18:42.122Z,3.14
2022-09-29T22:22:44.273Z,3.12
2022-09-29T22:26:46.227Z,3.21
2022-09-29T22:30:48.900Z,3.05
2022-09-29T22:34:50.759Z,3.13
2022-09-29T22:38:52.799Z,3.14
2022-09-29T22:42:55.098Z,2.88
2022-09-29T22:46:56.930Z,3.05
2022-09-29T22:50:58.596Z,3.05
2022-09-29T22:55:00.419Z,3.00
2022-09-29T22:59:04.496Z,2.97
2022-09-29T23:03:08.477Z,2.93
2022-09-29T23:07:10.486Z,2.92
2022-09-29T23:11:17.709Z,2.87
2022-09-29T23:15:19.474Z,2.80
2022-09-29T23:19:21.890Z,2.72
2022-09-29T23:23:23.684Z,2.69
2022-09-29T23:27:25.953Z,2.66
2022-09-29T23:31:27.996Z,2.73
2022-09-29T23:35:29.894Z,2.69
2022-09-29T23:39:31.842Z,2.80
2022-09-29T23:43:34.125Z,2.68
2022-09-29T23:47:36.252Z,2.55
2022-09-29T23:51:41.490Z,2.66
2022-09-29T23:55:43.319Z,2.50
2022-09-29T23:59:45.815Z,2.62
